createdAt,value
2023-08-11T00:01:40.565Z,4.35
2023-08-11T00:04:42.475Z,5.50
2023-08-11T00:07:46.242Z,4.82
2023-08-11T00:10:48.287Z,6.18
2023-08-11T00:13:50.687Z,4.10
2023-08-11T00:19:54.353Z,5.40
2023-08-11T00:22:56.573Z,6.43
2023-08-11T00:25:58.710Z,4.03
2023-08-11T00:29:00.616Z,4.20
2023-08-11T00:32:02.568Z,6.78
2023-08-11T00:35:05.274Z,5.60
2023-08-11T00:38:07.274Z,4.68
2023-08-11T00:41:09.310Z,5.10
2023-08-11T00:44:11.354Z,6.00
2023-08-11T00:47:13.570Z,4.90
2023-08-11T00:50:18.734Z,5.63
2023-08-11T00:53:21.270Z,4.95
2023-08-11T00:56:24.330Z,4.82
2023-08-11T00:59:27.087Z,4.78
2023-08-11T01:02:29.108Z,5.35
2023-08-11T01:05:35.703Z,5.85
2023-08-11T01:09:19.868Z,5.28
2023-08-11T01:12:24.966Z,5.85
2023-08-11T01:15:41.585Z,6.78
2023-08-11T01:18:44.152Z,7.57
2023-08-11T01:21:47.582Z,5.80
2023-08-11T01:24:50.147Z,7.68
2023-08-11T01:28:00.140Z,7.95
2023-08-11T01:31:02.190Z,6.60
2023-08-11T01:34:04.443Z,8.20
2023-08-11T01:37:06.742Z,5.60
2023-08-11T01:40:12.290Z,7.50
2023-08-11T01:43:16.437Z,6.78
2023-08-11T01:46:19.149Z,7.30
2023-08-11T01:49:24.208Z,6.05
2023-08-11T01:52:27.363Z,7.65
2023-08-11T01:55:30.228Z,6.30
2023-08-11T01:58:32.666Z,6.72
2023-08-11T02:01:34.700Z,6.15
2023-08-11T02:04:36.871Z,8.02
2023-08-11T02:07:39.554Z,8.75
2023-08-11T02:10:41.512Z,7.38
2023-08-11T02:13:44.490Z,7.32
2023-08-11T02:16:46.916Z,7.80
2023-08-11T02:19:52.015Z,7.25
2023-08-11T02:22:55.156Z,6.95
2023-08-11T02:25:58.173Z,5.60
2023-08-11T02:29:00.129Z,6.55
2023-08-11T02:32:04.635Z,7.85
2023-08-11T02:35:07.384Z,7.20
2023-08-11T02:38:09.974Z,7.20
2023-08-11T02:41:12.404Z,5.72
2023-08-11T02:44:14.626Z,6.40
2023-08-11T02:47:16.583Z,7.55
2023-08-11T02:50:19.105Z,6.53
2023-08-11T02:53:21.132Z,6.65
2023-08-11T02:56:23.116Z,7.00
2023-08-11T02:59:25.079Z,5.90
2023-08-11T03:02:27.606Z,6.75
2023-08-11T03:05:29.580Z,6.53
2023-08-11T03:08:33.012Z,7.07
2023-08-11T03:11:35.979Z,7.50
2023-08-11T03:14:37.977Z,5.05
2023-08-11T03:17:40.102Z,7.03
2023-08-11T03:20:43.489Z,6.38
2023-08-11T03:23:45.386Z,5.40
2023-08-11T03:26:47.347Z,5.90
2023-08-11T03:29:49.429Z,5.65
2023-08-11T03:32:52.748Z,6.60
2023-08-11T03:35:56.316Z,7.15
2023-08-11T03:38:58.335Z,6.15
2023-08-11T03:42:01.343Z,6.10
2023-08-11T03:45:03.978Z,5.88
2023-08-11T03:48:07.406Z,6.00
2023-08-11T03:51:10.822Z,6.05
2023-08-11T03:54:13.219Z,6.55
2023-08-11T03:57:15.804Z,5.25
2023-08-11T04:00:20.869Z,7.35
2023-08-11T04:03:33.592Z,6.57
2023-08-11T04:06:35.570Z,7.25
2023-08-11T04:09:41.166Z,11.43
2023-08-11T04:12:43.093Z,8.90
2023-08-11T04:15:48.904Z,7.07
2023-08-11T04:18:52.032Z,7.03
2023-08-11T04:21:54.013Z,7.50
2023-08-11T04:24:56.615Z,7.75
2023-08-11T04:28:00.944Z,7.55
2023-08-11T04:31:03.080Z,5.57
2023-08-11T04:34:07.749Z,4.97
2023-08-11T04:40:14.988Z,7.05
2023-08-11T04:43:20.143Z,7.28
2023-08-11T04:46:22.692Z,5.93
2023-08-11T04:49:25.329Z,7.20
2023-08-11T04:52:28.283Z,6.45
2023-08-11T04:55:32.381Z,5.95
2023-08-11T04:58:39.391Z,7.05
2023-08-11T05:01:41.473Z,5.82
2023-08-11T05:07:45.562Z,10.13
2023-08-11T05:10:47.389Z,7.05
2023-08-11T05:13:49.270Z,7.03
2023-08-11T05:16:51.340Z,6.07
2023-08-11T05:19:53.296Z,6.30
2023-08-11T05:22:55.279Z,8.18
2023-08-11T05:25:57.131Z,7.70
2023-08-11T05:28:59.289Z,6.22
2023-08-11T05:32:01.226Z,6.45
2023-08-11T05:35:03.901Z,7.20
2023-08-11T05:38:06.457Z,27.33
2023-08-11T05:41:08.345Z,22.73
2023-08-11T05:44:10.336Z,12.85
2023-08-11T05:47:12.501Z,12.20
2023-08-11T05:50:14.575Z,10.60
2023-08-11T05:53:17.109Z,9.35
2023-08-11T05:56:18.955Z,9.93
2023-08-11T05:59:23.779Z,8.98
2023-08-11T06:02:25.694Z,12.38
2023-08-11T06:05:28.171Z,10.68
2023-08-11T06:08:30.082Z,11.68
2023-08-11T06:11:32.103Z,12.70
2023-08-11T06:14:34.672Z,11.40
2023-08-11T06:17:37.772Z,9.85
2023-08-11T06:20:42.119Z,9.68
2023-08-11T06:23:45.220Z,8.63
2023-08-11T06:26:47.202Z,10.15
2023-08-11T06:29:49.480Z,9.23
2023-08-11T06:32:51.490Z,8.75
2023-08-11T06:35:54.247Z,9.38
2023-08-11T06:38:56.140Z,8.45
2023-08-11T06:41:58.113Z,7.80
2023-08-11T06:45:19.973Z,8.48
2023-08-11T06:48:21.906Z,8.27
2023-08-11T06:51:23.790Z,8.77
2023-08-11T06:54:25.707Z,8.15
2023-08-11T06:57:27.713Z,7.65
2023-08-11T07:00:29.602Z,9.68
2023-08-11T07:03:34.623Z,7.65
2023-08-11T07:06:36.963Z,8.60
2023-08-11T07:12:40.765Z,8.00
2023-08-11T07:15:43.739Z,6.97
2023-08-11T07:18:45.826Z,7.55
2023-08-11T07:21:47.761Z,7.43
2023-08-11T07:24:49.641Z,7.65
2023-08-11T07:27:51.485Z,6.43
2023-08-11T07:30:53.414Z,7.18
2023-08-11T07:33:55.319Z,6.57
2023-08-11T07:36:57.270Z,5.93
2023-08-11T07:39:59.184Z,6.57
2023-08-11T07:43:01.294Z,6.05
2023-08-11T07:49:05.317Z,6.72
2023-08-11T07:55:09.437Z,7.50
2023-08-11T07:58:11.889Z,6.57
2023-08-11T08:01:13.896Z,5.78
2023-08-11T08:04:15.979Z,7.45
2023-08-11T08:07:17.854Z,6.88
2023-08-11T08:10:21.468Z,7.57
2023-08-11T08:13:23.510Z,6.05
2023-08-11T08:16:25.546Z,6.75
2023-08-11T08:22:30.227Z,7.15
2023-08-11T08:25:32.213Z,6.38
2023-08-11T08:28:34.525Z,7.00
2023-08-11T08:31:37.039Z,5.85
2023-08-11T08:34:39.155Z,5.88
2023-08-11T08:40:44.178Z,5.53
2023-08-11T08:43:47.586Z,5.80
2023-08-11T08:46:53.241Z,5.97
2023-08-11T08:49:57.254Z,5.70
2023-08-11T08:53:02.321Z,6.00
2023-08-11T08:56:06.159Z,6.75
2023-08-11T08:59:09.382Z,5.63
2023-08-11T09:02:13.780Z,6.00
2023-08-11T09:05:16.369Z,5.93
2023-08-11T09:08:18.299Z,6.25
2023-08-11T09:11:22.882Z,5.95
2023-08-11T09:14:25.035Z,7.28
2023-08-11T09:17:27.106Z,5.95
2023-08-11T09:20:30.405Z,5.18
2023-08-11T09:23:34.147Z,5.90
2023-08-11T09:26:36.112Z,6.45
2023-08-11T09:29:38.477Z,7.07
2023-08-11T09:32:40.659Z,6.70
2023-08-11T12:43:33.977Z,7.37
2023-08-11T12:46:37.430Z,6.70
2023-08-11T12:49:39.633Z,7.50
2023-08-11T12:52:41.631Z,7.25
2023-08-11T12:55:44.043Z,6.53
2023-08-11T12:58:45.961Z,6.45
2023-08-11T13:01:48.061Z,6.03
2023-08-11T13:07:51.956Z,7.00
2023-08-11T13:10:56.818Z,6.32
2023-08-11T13:13:58.767Z,5.95
2023-08-11T13:17:00.752Z,5.57
2023-08-11T13:20:07.636Z,6.07
2023-08-11T13:23:09.777Z,5.57
2023-08-11T13:26:13.472Z,6.10
2023-08-11T13:29:15.369Z,5.35
2023-08-11T13:32:17.323Z,6.93
2023-08-11T13:35:19.250Z,7.18
2023-08-11T13:38:21.392Z,5.10
2023-08-11T13:41:23.245Z,6.10
2023-08-11T13:44:25.167Z,5.53
2023-08-11T13:47:27.713Z,7.43
2023-08-11T13:50:29.810Z,5.65
2023-08-11T13:53:31.778Z,4.60
2023-08-11T13:56:36.356Z,5.72
2023-08-11T13:59:38.282Z,4.80
2023-08-11T14:02:40.201Z,4.70
2023-08-11T14:05:42.514Z,4.88
2023-08-11T14:11:46.858Z,4.65
2023-08-11T14:14:49.126Z,4.57
2023-08-11T14:20:52.905Z,4.37
2023-08-11T14:23:55.962Z,4.43
2023-08-11T14:26:58.101Z,4.25
2023-08-11T14:29:59.968Z,4.43
2023-08-11T14:33:01.987Z,4.50
2023-08-11T14:39:13.884Z,4.95
2023-08-11T14:42:15.942Z,5.18
2023-08-11T14:45:17.864Z,4.90
2023-08-11T14:48:20.666Z,5.20
2023-08-11T14:51:22.704Z,4.65
2023-08-11T14:54:27.775Z,5.45
2023-08-11T14:57:29.982Z,5.72
2023-08-11T15:00:33.337Z,5.65
2023-08-11T15:03:35.309Z,7.05
2023-08-11T15:06:37.340Z,6.07
2023-08-11T15:09:39.961Z,4.32
2023-08-11T15:12:42.521Z,7.18
2023-08-11T15:15:44.417Z,4.63
2023-08-11T15:18:46.296Z,6.32
2023-08-11T15:21:48.272Z,5.93
2023-08-11T15:24:50.220Z,5.97
2023-08-11T15:27:52.126Z,5.28
2023-08-11T15:30:54.098Z,5.57
2023-08-11T15:33:56.016Z,6.10
2023-08-11T15:36:57.895Z,5.97
2023-08-11T15:39:59.774Z,4.20
2023-08-11T15:43:01.885Z,4.18
2023-08-11T15:46:04.527Z,4.15
2023-08-11T15:49:06.621Z,5.43
2023-08-11T15:52:08.886Z,3.97
2023-08-11T15:55:11.068Z,3.75
2023-08-11T15:58:13.026Z,4.25
2023-08-11T16:01:15.071Z,3.95
2023-08-11T16:04:17.120Z,4.93
2023-08-11T16:07:19.106Z,4.38
2023-08-11T16:10:21.062Z,4.20
2023-08-11T16:13:22.964Z,4.15
2023-08-11T16:16:25.161Z,3.83
2023-08-11T16:19:27.139Z,3.95
2023-08-11T16:22:31.366Z,3.67
2023-08-11T16:25:33.339Z,4.13
2023-08-11T16:28:35.316Z,3.85
2023-08-11T16:31:37.226Z,3.72
2023-08-11T16:34:39.135Z,3.25
2023-08-11T16:37:41.167Z,3.90
2023-08-11T16:40:43.261Z,3.30
2023-08-11T16:43:45.983Z,4.28
2023-08-11T16:46:47.922Z,3.70
2023-08-11T16:49:51.447Z,4.03
2023-08-11T16:52:54.650Z,4.07
2023-08-11T16:55:56.628Z,4.50
2023-08-11T16:59:01.215Z,4.43
2023-08-11T17:02:03.129Z,4.47
2023-08-11T17:05:05.436Z,4.60
2023-08-11T17:11:11.897Z,4.28
2023-08-11T17:14:13.820Z,3.58
2023-08-11T17:17:15.864Z,4.10
2023-08-11T17:20:17.994Z,4.53
2023-08-11T17:23:20.268Z,3.42
2023-08-11T17:29:24.509Z,3.65
2023-08-11T17:32:26.362Z,2.97
2023-08-11T17:35:28.249Z,3.08
2023-08-11T17:38:30.821Z,3.20
2023-08-11T17:41:32.668Z,3.30
2023-08-11T17:44:34.659Z,3.10
2023-08-11T17:47:36.773Z,4.13
2023-08-11T17:50:39.834Z,2.78
2023-08-11T17:53:42.623Z,2.83
2023-08-11T17:56:47.338Z,3.70
2023-08-11T17:59:49.218Z,5.28
2023-08-11T18:02:51.577Z,3.53
2023-08-11T18:05:53.558Z,3.67
2023-08-11T18:08:55.697Z,3.45
2023-08-11T18:11:57.633Z,4.10
2023-08-11T18:15:01.560Z,3.40
2023-08-11T18:18:04.167Z,3.75
2023-08-11T18:21:15.295Z,3.45
2023-08-11T18:24:22.706Z,3.38
2023-08-11T18:27:24.682Z,3.95
2023-08-11T18:30:26.626Z,3.83
2023-08-11T18:33:28.577Z,3.67
2023-08-11T18:36:30.515Z,3.58
2023-08-11T18:39:32.418Z,4.00
2023-08-11T18:42:34.417Z,4.35
2023-08-11T18:45:36.312Z,4.25
2023-08-11T18:48:38.208Z,3.80
2023-08-11T18:51:41.401Z,3.35
2023-08-11T18:54:43.416Z,4.85
2023-08-11T18:57:45.352Z,3.75
2023-08-11T19:00:47.212Z,4.18
2023-08-11T19:03:49.186Z,5.32
2023-08-11T19:06:51.174Z,3.65
2023-08-11T19:09:53.107Z,5.22
2023-08-11T19:12:55.307Z,5.50
2023-08-11T19:15:57.382Z,5.28
2023-08-11T19:19:00.007Z,4.93
2023-08-11T19:22:02.003Z,3.70
2023-08-11T19:25:05.569Z,4.32
2023-08-11T19:28:08.446Z,3.53
2023-08-11T19:31:10.505Z,4.45
2023-08-11T19:34:12.685Z,3.85
2023-08-11T19:37:14.928Z,3.53
2023-08-11T19:40:16.983Z,3.67
2023-08-11T19:43:19.002Z,4.00
2023-08-11T19:46:21.014Z,3.58
2023-08-11T19:49:23.089Z,3.80
2023-08-11T19:52:24.944Z,3.55
2023-08-11T19:55:27.017Z,3.13
2023-08-11T19:58:28.880Z,3.17
2023-08-11T20:01:30.804Z,3.95
2023-08-11T20:04:32.763Z,4.57
2023-08-11T20:07:34.614Z,2.75
2023-08-11T20:10:36.604Z,4.45
2023-08-11T20:13:38.525Z,2.58
2023-08-11T20:16:40.477Z,2.90
2023-08-11T20:19:42.348Z,2.35
2023-08-11T20:22:44.956Z,1.67
2023-08-11T20:25:47.148Z,1.85
2023-08-11T20:28:49.121Z,2.72
2023-08-11T20:31:55.545Z,1.58
2023-08-11T20:34:57.471Z,1.98
2023-08-11T20:37:59.574Z,2.17
2023-08-11T20:41:01.448Z,1.95
2023-08-11T20:44:03.579Z,1.55
2023-08-11T20:47:05.671Z,1.63
2023-08-11T20:50:08.075Z,1.75
2023-08-11T20:56:12.996Z,1.63
2023-08-11T20:59:14.940Z,1.88
2023-08-11T21:02:16.863Z,1.48
2023-08-11T21:05:18.733Z,3.05
2023-08-11T21:08:20.714Z,1.23
2023-08-11T21:11:22.607Z,1.48
2023-08-11T21:14:24.886Z,1.20
2023-08-11T21:17:26.839Z,1.67
2023-08-11T21:20:28.745Z,1.45
2023-08-11T21:23:30.590Z,1.58
2023-08-11T21:26:32.638Z,1.33
2023-08-11T21:29:34.577Z,1.38
2023-08-11T21:32:36.528Z,1.13
2023-08-11T21:35:38.921Z,1.50
2023-08-11T21:38:40.807Z,1.80
2023-08-11T21:41:42.641Z,1.08
2023-08-11T21:44:44.548Z,2.08
2023-08-11T21:47:46.880Z,1.30
2023-08-11T21:53:50.596Z,1.45
2023-08-11T21:56:52.543Z,1.52
2023-08-11T21:59:54.505Z,0.93
2023-08-11T22:02:56.492Z,0.90
2023-08-11T22:05:58.927Z,1.73
2023-08-11T22:12:02.595Z,1.70
2023-08-11T22:15:05.997Z,1.65
2023-08-11T22:18:07.928Z,1.35
2023-08-11T22:21:09.988Z,1.58
2023-08-11T22:24:12.365Z,1.90
2023-08-11T22:30:17.329Z,1.10
2023-08-11T22:33:20.251Z,1.42
2023-08-11T22:36:22.171Z,1.85
2023-08-11T22:39:24.108Z,1.58
2023-08-11T22:42:27.551Z,2.83
2023-08-11T22:45:29.419Z,2.40
2023-08-11T22:48:31.465Z,2.47
2023-08-11T22:51:33.334Z,2.40
2023-08-11T22:54:35.250Z,2.35
2023-08-11T22:57:37.116Z,2.53
2023-08-11T23:00:39.574Z,2.70
2023-08-11T23:03:41.584Z,2.10
2023-08-11T23:06:43.574Z,3.60
2023-08-11T23:09:45.546Z,2.35
2023-08-11T23:12:47.439Z,2.67
2023-08-11T23:15:49.616Z,2.30
2023-08-11T23:18:51.696Z,3.30
2023-08-11T23:21:53.575Z,2.85
2023-08-11T23:24:55.612Z,3.33
2023-08-11T23:27:57.569Z,3.42
2023-08-11T23:30:59.460Z,3.95
2023-08-11T23:34:01.300Z,4.63
2023-08-11T23:37:03.223Z,5.30
2023-08-11T23:40:05.700Z,5.20
2023-08-11T23:46:14.979Z,5.00
2023-08-11T23:49:17.182Z,6.50
2023-08-11T23:52:19.626Z,5.38
2023-08-11T23:58:23.630Z,5.70
